createdAt,value
2022-10-09T00:01:13.955Z,74.71
2022-10-09T00:03:45.554Z,75.14
2022-10-09T00:06:17.891Z,75.47
2022-10-09T00:08:44.831Z,75.79
2022-10-09T00:11:20.305Z,75.70
2022-10-09T00:13:47.966Z,75.59
2022-10-09T00:16:15.875Z,75.20
2022-10-09T00:18:43.052Z,75.05
2022-10-09T00:21:24.185Z,74.79
2022-10-09T00:23:55.029Z,74.83
2022-10-09T00:26:22.355Z,74.27
2022-10-09T00:28:49.835Z,74.28
2022-10-09T00:31:16.906Z,74.63
2022-10-09T00:33:44.061Z,74.21
2022-10-09T00:36:14.313Z,74.43
2022-10-09T00:38:44.288Z,74.58
2022-10-09T00:41:16.018Z,74.31
2022-10-09T00:43:54.901Z,74.34
2022-10-09T00:46:45.642Z,74.40
2022-10-09T00:49:26.985Z,74.33
2022-10-09T00:51:55.113Z,74.74
2022-10-09T00:54:26.985Z,74.86
2022-10-09T00:56:54.474Z,74.99
2022-10-09T00:59:21.600Z,74.75
2022-10-09T01:01:48.058Z,74.95
2022-10-09T01:04:14.789Z,74.66
2022-10-09T01:06:59.452Z,75.06
2022-10-09T01:09:50.529Z,75.63
2022-10-09T01:12:29.194Z,75.61
2022-10-09T01:15:17.678Z,76.06
2022-10-09T01:17:53.802Z,76.36
2022-10-09T01:20:31.670Z,76.51
2022-10-09T01:23:03.540Z,77.27
2022-10-09T01:25:52.704Z,77.59
2022-10-09T01:28:24.005Z,78.10
2022-10-09T01:30:50.711Z,78.04
2022-10-09T01:33:18.208Z,78.20
2022-10-09T01:35:45.445Z,78.31
2022-10-09T01:38:11.912Z,78.67
2022-10-09T01:40:39.275Z,78.48
2022-10-09T01:43:05.825Z,78.77
2022-10-09T01:45:45.207Z,78.06
2022-10-09T01:48:22.331Z,78.06
2022-10-09T01:51:01.057Z,78.24
2022-10-09T01:53:31.445Z,78.12
2022-10-09T01:56:14.432Z,78.20
2022-10-09T01:58:55.695Z,77.93
2022-10-09T02:01:29.523Z,77.92
2022-10-09T02:03:59.705Z,77.99
2022-10-09T02:06:28.177Z,77.80
2022-10-09T02:08:55.191Z,77.58
2022-10-09T02:11:26.189Z,77.16
2022-10-09T02:13:55.257Z,77.72
2022-10-09T02:16:37.624Z,78.29
2022-10-09T02:19:12.869Z,78.21
2022-10-09T02:21:54.407Z,78.98
2022-10-09T02:24:22.908Z,79.06
2022-10-09T02:26:50.941Z,79.17
2022-10-09T02:29:17.616Z,79.25
2022-10-09T02:31:44.661Z,79.27
2022-10-09T02:34:19.538Z,79.39
2022-10-09T02:36:46.738Z,78.86
2022-10-09T02:39:13.157Z,78.50
2022-10-09T02:41:41.035Z,77.92
2022-10-09T02:44:07.823Z,77.69
2022-10-09T02:46:34.943Z,77.91
2022-10-09T02:49:01.487Z,78.35
2022-10-09T02:51:27.825Z,78.93
2022-10-09T02:53:54.561Z,79.23
2022-10-09T02:56:22.286Z,79.54
2022-10-09T02:58:48.798Z,79.45
2022-10-09T03:01:15.256Z,79.46
2022-10-09T03:03:42.024Z,79.89
2022-10-09T03:06:21.003Z,79.86
2022-10-09T03:08:49.394Z,79.59
2022-10-09T03:11:17.453Z,79.41
2022-10-09T03:13:44.894Z,79.60
2022-10-09T03:16:14.644Z,79.68
2022-10-09T03:18:41.610Z,79.80
2022-10-09T03:21:09.968Z,79.60
2022-10-09T03:23:38.074Z,80.29
2022-10-09T03:26:08.274Z,80.29
2022-10-09T03:28:40.276Z,80.48
2022-10-09T03:31:07.318Z,80.08
2022-10-09T03:33:35.435Z,80.04
2022-10-09T03:36:04.978Z,80.24
2022-10-09T03:38:31.428Z,79.54
2022-10-09T03:40:59.054Z,79.51
2022-10-09T03:43:25.761Z,79.99
2022-10-09T03:45:52.618Z,80.04
2022-10-09T03:48:18.990Z,79.86
2022-10-09T03:50:45.513Z,79.79
2022-10-09T03:53:12.945Z,79.98
2022-10-09T03:55:40.581Z,79.92
2022-10-09T03:58:07.384Z,80.06
2022-10-09T04:00:35.445Z,79.87
2022-10-09T04:03:02.122Z,80.06
2022-10-09T04:05:37.208Z,80.17
2022-10-09T04:08:03.550Z,80.10
2022-10-09T04:10:29.872Z,79.37
2022-10-09T04:12:56.381Z,79.63
2022-10-09T04:15:25.648Z,79.69
2022-10-09T04:17:52.088Z,79.60
2022-10-09T04:20:20.516Z,79.88
2022-10-09T04:22:47.310Z,80.05
2022-10-09T04:25:17.006Z,80.07
2022-10-09T04:27:43.314Z,80.23
2022-10-09T04:30:10.696Z,80.23
2022-10-09T04:32:39.763Z,79.89
2022-10-09T04:35:06.522Z,79.69
2022-10-09T04:37:32.900Z,79.95
2022-10-09T04:39:59.242Z,79.96
2022-10-09T04:42:25.552Z,79.79
2022-10-09T04:44:51.991Z,80.15
2022-10-09T04:47:18.353Z,80.22
2022-10-09T04:49:44.784Z,80.18
2022-10-09T04:52:11.115Z,79.36
2022-10-09T04:54:37.495Z,79.73
2022-10-09T04:57:06.787Z,79.20
2022-10-09T04:59:33.109Z,79.24
2022-10-09T05:01:59.477Z,79.39
2022-10-09T05:04:26.815Z,79.47
2022-10-09T05:06:55.940Z,79.18
2022-10-09T05:09:22.257Z,78.73
2022-10-09T05:11:48.595Z,79.18
2022-10-09T05:14:15.077Z,79.04
2022-10-09T05:17:08.386Z,78.85
2022-10-09T05:19:27.848Z,78.90
2022-10-09T05:21:54.910Z,78.95
2022-10-09T05:24:21.247Z,79.22
2022-10-09T05:26:47.630Z,79.04
2022-10-09T05:29:13.960Z,79.23
2022-10-09T05:31:40.518Z,79.12
2022-10-09T05:34:06.906Z,79.11
2022-10-09T05:36:36.014Z,79.12
2022-10-09T05:39:02.410Z,79.10
2022-10-09T05:41:31.209Z,78.72
2022-10-09T05:44:01.959Z,79.36
2022-10-09T05:46:31.445Z,79.29
2022-10-09T05:49:03.136Z,79.09
2022-10-09T05:51:31.709Z,78.78
2022-10-09T05:53:58.896Z,78.83
2022-10-09T05:56:27.639Z,79.01
2022-10-09T05:58:59.135Z,79.25
2022-10-09T06:01:30.283Z,79.07
2022-10-09T06:03:58.529Z,79.47
2022-10-09T06:06:27.596Z,79.43
2022-10-09T06:08:54.358Z,79.67
2022-10-09T06:11:28.492Z,79.86
2022-10-09T06:13:56.094Z,80.23
2022-10-09T06:16:26.517Z,80.98
2022-10-09T06:18:54.086Z,80.73
2022-10-09T06:21:20.958Z,80.36
2022-10-09T06:23:51.645Z,79.98
2022-10-09T06:26:19.043Z,79.52
2022-10-09T06:28:46.214Z,79.51
2022-10-09T06:31:15.759Z,78.02
2022-10-09T06:33:44.417Z,76.63
2022-10-09T06:36:19.212Z,75.63
2022-10-09T06:38:53.017Z,75.18
2022-10-09T06:41:23.110Z,73.63
2022-10-09T06:43:51.710Z,71.14
2022-10-09T06:46:18.886Z,69.02
2022-10-09T06:48:45.332Z,67.25
2022-10-09T06:51:18.031Z,65.49
2022-10-09T06:53:49.276Z,64.72
2022-10-09T06:56:17.750Z,64.49
2022-10-09T06:58:44.986Z,64.01
2022-10-09T07:01:14.551Z,63.91
2022-10-09T07:03:42.640Z,64.70
2022-10-09T07:06:13.373Z,65.37
2022-10-09T07:08:42.325Z,66.22
2022-10-09T07:11:21.379Z,67.32
2022-10-09T07:13:50.868Z,68.79
2022-10-09T07:16:26.556Z,69.29
2022-10-09T07:18:54.093Z,70.23
2022-10-09T07:21:20.983Z,71.25
2022-10-09T07:23:47.744Z,72.17
2022-10-09T07:26:17.134Z,72.66
2022-10-09T07:28:44.613Z,73.27
2022-10-09T07:31:12.169Z,73.31
2022-10-09T07:33:39.323Z,73.91
2022-10-09T07:36:07.048Z,74.18
2022-10-09T07:38:33.645Z,74.59
2022-10-09T07:41:08.261Z,75.60
2022-10-09T07:43:36.875Z,75.45
2022-10-09T07:46:05.082Z,75.60
2022-10-09T07:48:33.347Z,75.69
2022-10-09T07:51:11.325Z,76.39
2022-10-09T07:53:38.605Z,76.78
2022-10-09T07:56:05.777Z,76.64
2022-10-09T07:58:35.911Z,76.86
2022-10-09T08:01:09.871Z,77.80
2022-10-09T08:03:38.088Z,77.69
2022-10-09T08:06:07.589Z,78.06
2022-10-09T08:08:34.114Z,77.64
2022-10-09T08:11:07.739Z,77.57
2022-10-09T08:13:34.672Z,77.68
2022-10-09T08:16:01.496Z,79.52
2022-10-09T08:18:28.116Z,80.03
2022-10-09T08:21:06.754Z,78.63
2022-10-09T08:23:35.116Z,74.81
2022-10-09T08:26:02.277Z,71.24
2022-10-09T08:28:30.723Z,67.62
2022-10-09T08:30:57.189Z,65.33
2022-10-09T08:33:24.871Z,61.54
2022-10-09T08:35:52.997Z,58.77
2022-10-09T08:38:46.104Z,55.91
2022-10-09T08:41:37.838Z,55.76
2022-10-09T08:44:23.951Z,55.87
2022-10-09T08:46:59.230Z,55.62
2022-10-09T08:49:31.685Z,55.29
2022-10-09T08:52:04.812Z,56.23
2022-10-09T08:54:36.345Z,55.34
2022-10-09T08:57:09.746Z,56.28
2022-10-09T08:59:36.286Z,56.75
2022-10-09T09:05:12.317Z,51.80
2022-10-09T09:07:47.764Z,47.99
2022-10-09T09:10:22.707Z,46.99
2022-10-09T09:12:57.157Z,45.62
2022-10-09T09:15:58.458Z,44.32
2022-10-09T09:18:54.607Z,44.48
2022-10-09T09:21:42.911Z,43.02
2022-10-09T09:24:17.724Z,41.02
2022-10-09T09:26:48.849Z,39.16
2022-10-09T09:29:21.414Z,38.85
2022-10-09T09:31:53.560Z,37.99
2022-10-09T09:34:28.871Z,37.08
2022-10-09T09:36:57.938Z,36.44
2022-10-09T09:42:17.480Z,34.84
2022-10-09T09:44:55.156Z,33.40
2022-10-09T09:47:41.817Z,33.29
2022-10-09T09:50:23.365Z,32.58
2022-10-09T09:52:56.182Z,32.00
2022-10-09T09:55:29.544Z,32.19
2022-10-09T09:58:05.542Z,31.31
2022-10-09T10:00:32.871Z,31.09
2022-10-09T10:03:04.754Z,31.31
2022-10-09T10:05:36.768Z,31.17
2022-10-09T10:08:23.118Z,30.80
2022-10-09T10:10:52.110Z,30.50
2022-10-09T10:13:22.092Z,30.64
2022-10-09T10:15:55.096Z,30.84
2022-10-09T10:18:24.726Z,30.59
2022-10-09T10:20:54.743Z,30.33
2022-10-09T10:23:41.662Z,30.35
2022-10-09T10:26:21.033Z,29.99
2022-10-09T10:28:53.162Z,29.08
2022-10-09T10:31:33.734Z,29.07
2022-10-09T10:34:04.146Z,29.15
2022-10-09T10:36:33.024Z,28.95
2022-10-09T10:39:12.028Z,28.98
2022-10-09T10:41:45.424Z,28.80
2022-10-09T10:44:25.439Z,28.64
2022-10-09T10:47:00.986Z,28.31
2022-10-09T10:49:32.869Z,28.48
2022-10-09T10:52:35.170Z,28.40
2022-10-09T10:55:10.396Z,27.71
2022-10-09T10:58:01.346Z,27.70
2022-10-09T11:00:29.189Z,27.62
2022-10-09T11:02:58.522Z,28.00
2022-10-09T11:05:34.170Z,27.44
2022-10-09T11:08:21.256Z,27.31
2022-10-09T11:10:58.909Z,27.71
2022-10-09T11:13:33.359Z,28.04
2022-10-09T11:16:09.472Z,28.17
2022-10-09T11:18:42.067Z,27.74
2022-10-09T11:21:17.595Z,28.33
2022-10-09T11:23:50.582Z,27.79
2022-10-09T11:26:34.872Z,27.72
2022-10-09T11:29:08.486Z,27.71
2022-10-09T11:31:42.844Z,27.69
2022-10-09T11:34:18.008Z,28.20
2022-10-09T11:36:45.445Z,28.09
2022-10-09T11:39:19.124Z,28.35
2022-10-09T11:41:48.020Z,28.79
2022-10-09T11:44:20.168Z,28.92
2022-10-09T11:46:50.297Z,28.28
2022-10-09T11:49:23.485Z,28.28
2022-10-09T11:51:49.745Z,28.39
2022-10-09T11:54:19.893Z,27.54
2022-10-09T11:56:58.975Z,28.25
2022-10-09T11:59:43.588Z,28.21
2022-10-09T12:02:24.973Z,28.97
2022-10-09T12:04:55.581Z,29.02
2022-10-09T12:10:20.517Z,28.62
2022-10-09T12:12:59.675Z,28.69
2022-10-09T12:15:47.148Z,29.11
2022-10-09T12:18:28.350Z,28.58
2022-10-09T12:20:57.344Z,28.95
2022-10-09T12:23:28.712Z,28.98
2022-10-09T12:25:56.828Z,29.51
2022-10-09T12:28:35.656Z,29.34
2022-10-09T12:31:05.289Z,29.29
2022-10-09T12:33:39.327Z,29.96
2022-10-09T12:36:13.447Z,28.90
2022-10-09T12:38:40.718Z,29.28
2022-10-09T12:41:19.352Z,29.48
2022-10-09T12:43:48.096Z,29.08
2022-10-09T12:46:14.527Z,29.44
2022-10-09T12:48:43.489Z,29.52
2022-10-09T12:51:35.858Z,29.48
2022-10-09T12:54:09.007Z,29.45
2022-10-09T12:56:38.375Z,30.10
2022-10-09T12:59:07.039Z,30.20
2022-10-09T13:01:34.588Z,30.14
2022-10-09T13:04:05.654Z,29.99
2022-10-09T13:06:38.077Z,29.51
2022-10-09T13:09:07.827Z,29.49
2022-10-09T13:11:41.054Z,29.85
2022-10-09T13:14:24.420Z,30.42
2022-10-09T13:16:50.935Z,30.76
2022-10-09T13:19:26.638Z,31.19
2022-10-09T13:22:19.175Z,30.83
2022-10-09T13:24:46.384Z,31.27
2022-10-09T13:27:14.587Z,30.93
2022-10-09T13:29:42.904Z,31.01
2022-10-09T13:32:12.917Z,30.87
2022-10-09T13:34:39.538Z,31.27
2022-10-09T13:37:06.169Z,31.64
2022-10-09T13:39:32.507Z,31.66
2022-10-09T13:41:59.739Z,31.99
2022-10-09T13:44:46.022Z,32.40
2022-10-09T13:47:12.380Z,32.61
2022-10-09T13:49:38.801Z,32.77
2022-10-09T13:52:05.306Z,33.33
2022-10-09T13:54:31.957Z,33.43
2022-10-09T13:56:58.374Z,33.54
2022-10-09T13:59:24.909Z,33.51
2022-10-09T14:01:52.187Z,34.13
2022-10-09T14:04:20.277Z,34.48
2022-10-09T14:06:46.741Z,34.72
2022-10-09T14:09:13.120Z,34.82
2022-10-09T14:11:39.542Z,34.99
2022-10-09T14:14:06.378Z,34.86
2022-10-09T14:16:32.728Z,35.46
2022-10-09T14:19:01.350Z,35.38
2022-10-09T14:21:28.915Z,35.69
2022-10-09T14:24:00.443Z,35.77
2022-10-09T14:26:28.646Z,36.10
2022-10-09T14:28:58.166Z,36.10
2022-10-09T14:31:24.536Z,36.46
2022-10-09T14:33:56.170Z,36.25
2022-10-09T14:36:22.981Z,36.46
2022-10-09T14:38:49.513Z,36.72
2022-10-09T14:41:20.828Z,36.78
2022-10-09T14:43:53.035Z,36.81
2022-10-09T14:46:19.757Z,37.09
2022-10-09T14:48:49.779Z,37.09
2022-10-09T14:51:19.927Z,37.18
2022-10-09T14:53:47.656Z,37.69
2022-10-09T14:56:17.251Z,37.67
2022-10-09T14:58:44.415Z,37.99
2022-10-09T15:01:16.152Z,37.87
2022-10-09T15:03:42.917Z,37.42
2022-10-09T15:06:11.806Z,37.58
2022-10-09T15:08:42.462Z,37.62
2022-10-09T15:11:10.563Z,37.48
2022-10-09T15:13:38.095Z,37.49
2022-10-09T15:16:09.323Z,37.40
2022-10-09T15:18:36.166Z,37.69
2022-10-09T15:21:03.370Z,37.86
2022-10-09T15:23:30.591Z,37.91
2022-10-09T15:25:59.422Z,37.73
2022-10-09T15:28:26.122Z,37.82
2022-10-09T15:30:55.973Z,37.72
2022-10-09T15:33:22.388Z,37.96
2022-10-09T15:35:51.619Z,37.90
2022-10-09T15:38:21.625Z,38.14
2022-10-09T15:40:56.563Z,38.30
2022-10-09T15:43:25.885Z,38.17
2022-10-09T15:45:56.012Z,38.12
2022-10-09T15:48:24.799Z,38.19
2022-10-09T15:50:53.630Z,38.42
2022-10-09T15:53:23.525Z,38.76
2022-10-09T15:55:53.954Z,39.20
2022-10-09T15:58:31.467Z,39.30
2022-10-09T16:01:03.847Z,39.43
2022-10-09T16:03:33.326Z,39.40
2022-10-09T16:06:04.404Z,39.62
2022-10-09T16:08:31.651Z,39.70
2022-10-09T16:10:58.672Z,39.89
2022-10-09T16:13:26.788Z,39.69
2022-10-09T16:15:53.968Z,40.01
2022-10-09T16:18:22.821Z,40.09
2022-10-09T16:20:50.729Z,40.35
2022-10-09T16:23:18.590Z,41.13
2022-10-09T16:25:56.036Z,41.21
2022-10-09T16:28:22.532Z,41.55
2022-10-09T16:30:49.030Z,41.79
2022-10-09T16:33:18.647Z,42.06
2022-10-09T16:35:46.342Z,41.97
2022-10-09T16:38:13.776Z,42.42
2022-10-09T16:41:02.965Z,43.00
2022-10-09T16:43:33.440Z,43.30
2022-10-09T16:46:19.032Z,43.36
2022-10-09T16:48:50.369Z,43.47
2022-10-09T16:51:36.062Z,43.12
2022-10-09T16:54:05.215Z,43.49
2022-10-09T16:56:34.872Z,43.46
2022-10-09T16:59:04.589Z,43.48
2022-10-09T17:01:32.166Z,43.90
2022-10-09T17:03:59.970Z,44.08
2022-10-09T17:06:35.592Z,44.09
2022-10-09T17:09:02.934Z,44.31
2022-10-09T17:11:30.671Z,44.92
2022-10-09T17:13:57.673Z,45.13
2022-10-09T17:16:28.297Z,45.34
2022-10-09T17:18:55.555Z,45.27
2022-10-09T17:21:21.995Z,45.22
2022-10-09T17:23:52.385Z,45.42
2022-10-09T17:26:20.443Z,45.56
2022-10-09T17:28:49.945Z,45.91
2022-10-09T17:31:19.561Z,45.76
2022-10-09T17:33:48.316Z,46.32
2022-10-09T17:36:18.042Z,46.49
2022-10-09T17:38:45.206Z,46.81
2022-10-09T17:41:13.187Z,46.75
2022-10-09T17:43:39.769Z,46.81
2022-10-09T17:46:06.628Z,47.02
2022-10-09T17:48:34.518Z,47.40
2022-10-09T17:51:02.138Z,47.49
2022-10-09T17:53:28.518Z,47.69
2022-10-09T17:55:56.276Z,47.81
2022-10-09T17:58:24.345Z,48.08
2022-10-09T18:00:51.749Z,48.20
2022-10-09T18:03:19.057Z,48.61
2022-10-09T18:05:48.087Z,48.69
2022-10-09T18:08:17.235Z,48.95
2022-10-09T18:10:44.669Z,49.17
2022-10-09T18:13:11.484Z,49.10
2022-10-09T18:15:43.645Z,49.53
2022-10-09T18:18:11.274Z,49.91
2022-10-09T18:20:38.863Z,50.07
2022-10-09T18:23:06.227Z,50.36
2022-10-09T18:25:32.935Z,50.55
2022-10-09T18:27:59.741Z,50.92
2022-10-09T18:30:27.511Z,51.02
2022-10-09T18:32:53.901Z,51.36
2022-10-09T18:35:20.211Z,51.48
2022-10-09T18:37:46.594Z,52.06
2022-10-09T18:40:13.973Z,52.50
2022-10-09T18:42:40.436Z,52.65
2022-10-09T18:45:08.112Z,52.78
2022-10-09T18:47:35.949Z,53.32
2022-10-09T18:50:06.939Z,53.58
2022-10-09T18:52:35.245Z,53.63
2022-10-09T18:55:02.739Z,53.91
2022-10-09T18:57:29.627Z,53.96
2022-10-09T18:59:58.411Z,54.37
2022-10-09T19:02:27.230Z,54.53
2022-10-09T19:04:56.774Z,54.78
2022-10-09T19:07:29.539Z,55.20
2022-10-09T19:09:57.533Z,55.41
2022-10-09T19:12:24.883Z,55.69
2022-10-09T19:14:51.776Z,55.91
2022-10-09T19:17:18.501Z,56.00
2022-10-09T19:19:45.374Z,56.26
2022-10-09T19:22:16.563Z,56.43
2022-10-09T19:24:44.193Z,56.47
2022-10-09T19:27:14.155Z,56.64
2022-10-09T19:29:40.921Z,56.56
2022-10-09T19:32:07.343Z,56.82
2022-10-09T19:34:33.923Z,56.56
2022-10-09T19:37:00.502Z,56.65
2022-10-09T19:39:28.024Z,56.74
2022-10-09T19:41:54.723Z,56.95
2022-10-09T19:44:21.539Z,56.93
2022-10-09T19:46:48.489Z,57.05
2022-10-09T19:49:15.225Z,57.15
2022-10-09T19:51:41.553Z,57.27
2022-10-09T19:54:09.480Z,57.27
2022-10-09T19:56:37.370Z,57.46
2022-10-09T19:59:07.254Z,57.63
2022-10-09T20:01:35.970Z,57.71
2022-10-09T20:04:07.563Z,57.66
2022-10-09T20:06:36.772Z,57.82
2022-10-09T20:09:05.072Z,57.76
2022-10-09T20:11:31.730Z,57.74
2022-10-09T20:13:58.729Z,58.00
2022-10-09T20:16:25.861Z,58.14
2022-10-09T20:18:58.021Z,58.49
2022-10-09T20:21:25.678Z,58.44
2022-10-09T20:23:53.055Z,58.60
2022-10-09T20:26:32.367Z,58.50
2022-10-09T20:29:00.287Z,58.62
2022-10-09T20:31:27.279Z,58.51
2022-10-09T20:33:54.981Z,58.41
2022-10-09T20:36:23.947Z,58.59
2022-10-09T20:38:51.926Z,58.43
2022-10-09T20:41:18.653Z,58.42
2022-10-09T20:43:49.165Z,58.63
2022-10-09T20:46:15.908Z,58.59
2022-10-09T20:48:43.205Z,58.66
2022-10-09T20:51:09.939Z,58.71
2022-10-09T20:53:37.000Z,58.92
2022-10-09T20:56:06.778Z,58.72
2022-10-09T20:58:35.137Z,58.92
2022-10-09T21:01:06.279Z,58.99
2022-10-09T21:03:33.419Z,58.99
2022-10-09T21:06:03.815Z,59.04
2022-10-09T21:08:31.968Z,59.14
2022-10-09T21:11:04.248Z,59.15
2022-10-09T21:13:30.895Z,59.10
2022-10-09T21:15:57.522Z,58.81
2022-10-09T21:18:23.975Z,58.79
2022-10-09T21:20:54.727Z,58.55
2022-10-09T21:23:21.239Z,58.08
2022-10-09T21:25:50.012Z,58.17
2022-10-09T21:28:18.079Z,58.37
2022-10-09T21:30:44.759Z,58.17
2022-10-09T21:33:11.608Z,58.12
2022-10-09T21:35:40.445Z,58.36
2022-10-09T21:38:07.549Z,58.32
2022-10-09T21:40:33.912Z,58.16
2022-10-09T21:43:00.431Z,58.19
2022-10-09T21:45:26.865Z,57.97
2022-10-09T21:47:53.657Z,57.89
2022-10-09T21:50:20.004Z,57.70
2022-10-09T21:52:53.738Z,57.59
2022-10-09T21:55:20.246Z,57.66
2022-10-09T21:57:46.887Z,57.53
2022-10-09T22:00:13.465Z,57.24
2022-10-09T22:02:41.418Z,57.17
2022-10-09T22:05:08.291Z,57.29
2022-10-09T22:07:35.758Z,57.17
2022-10-09T22:10:03.875Z,56.91
2022-10-09T22:12:34.892Z,56.90
2022-10-09T22:15:01.992Z,57.18
2022-10-09T22:17:28.821Z,57.15
2022-10-09T22:19:56.239Z,57.25
2022-10-09T22:22:24.037Z,57.40
2022-10-09T22:24:51.929Z,57.38
2022-10-09T22:27:21.502Z,57.62
2022-10-09T22:29:47.900Z,57.36
2022-10-09T22:32:14.500Z,57.76
2022-10-09T22:34:40.837Z,57.63
2022-10-09T22:37:07.396Z,57.87
2022-10-09T22:39:34.200Z,58.25
2022-10-09T22:42:00.515Z,58.08
2022-10-09T22:44:26.953Z,58.23
2022-10-09T22:46:53.811Z,58.29
2022-10-09T22:49:21.655Z,58.29
2022-10-09T22:51:48.051Z,58.40
2022-10-09T22:54:14.878Z,58.73
2022-10-09T22:56:44.031Z,58.75
2022-10-09T22:59:12.042Z,58.60
2022-10-09T23:01:49.403Z,58.94
2022-10-09T23:04:18.027Z,58.97
2022-10-09T23:06:46.291Z,58.98
2022-10-09T23:09:15.724Z,58.85
2022-10-09T23:11:42.721Z,59.04
2022-10-09T23:14:11.130Z,59.10
2022-10-09T23:16:38.163Z,59.17
2022-10-09T23:19:07.220Z,59.71
2022-10-09T23:21:39.579Z,59.61
2022-10-09T23:24:08.007Z,59.87
2022-10-09T23:26:36.128Z,60.07
2022-10-09T23:29:05.767Z,60.11
2022-10-09T23:31:33.433Z,60.45
2022-10-09T23:34:00.374Z,60.77
2022-10-09T23:36:29.371Z,60.58
2022-10-09T23:39:04.246Z,60.64
2022-10-09T23:41:30.900Z,61.11
2022-10-09T23:44:03.657Z,61.11
2022-10-09T23:46:35.942Z,61.20
2022-10-09T23:49:02.489Z,61.58
2022-10-09T23:51:30.699Z,61.76
2022-10-09T23:53:58.268Z,62.01
2022-10-09T23:56:36.067Z,62.06
2022-10-09T23:59:05.983Z,61.93
